createdAt,value
2022-10-29T00:00:38.144Z,72.95
2022-10-29T00:06:12.486Z,72.77
2022-10-29T00:11:34.263Z,72.42
2022-10-29T00:16:57.007Z,72.55
2022-10-29T00:22:17.766Z,73.02
2022-10-29T00:27:38.581Z,72.99
2022-10-29T00:32:59.196Z,73.11
2022-10-29T00:38:19.797Z,72.81
2022-10-29T00:43:52.227Z,73.09
2022-10-29T00:49:13.307Z,73.11
2022-10-29T00:54:38.818Z,72.67
2022-10-29T00:59:59.656Z,72.56
2022-10-29T01:05:28.993Z,72.89
2022-10-29T01:11:20.031Z,72.54
2022-10-29T01:17:03.975Z,72.13
2022-10-29T01:22:45.239Z,72.22
2022-10-29T01:28:36.940Z,72.52
2022-10-29T01:34:18.934Z,72.03
2022-10-29T01:40:01.347Z,72.15
2022-10-29T01:45:25.559Z,72.11
2022-10-29T01:50:51.915Z,72.31
2022-10-29T01:56:12.754Z,72.46
2022-10-29T02:01:39.776Z,72.24
2022-10-29T02:07:33.020Z,71.68
2022-10-29T02:12:56.011Z,72.01
2022-10-29T02:18:17.797Z,72.22
2022-10-29T02:23:38.560Z,71.66
2022-10-29T02:28:59.407Z,71.51
2022-10-29T02:34:19.977Z,71.60
2022-10-29T02:39:40.713Z,72.18
2022-10-29T02:45:01.566Z,72.39
2022-10-29T02:50:22.163Z,72.23
2022-10-29T02:55:42.876Z,71.99
2022-10-29T03:01:04.327Z,72.51
2022-10-29T03:06:25.425Z,72.69
2022-10-29T03:11:46.001Z,72.16
2022-10-29T03:17:06.744Z,71.73
2022-10-29T03:22:27.412Z,71.99
2022-10-29T03:27:48.401Z,72.20
2022-10-29T03:33:09.224Z,72.12
2022-10-29T03:38:30.091Z,71.85
2022-10-29T03:43:51.117Z,71.99
2022-10-29T03:49:11.893Z,71.73
2022-10-29T03:54:32.658Z,72.28
2022-10-29T03:59:54.439Z,72.72
2022-10-29T04:05:15.105Z,72.97
2022-10-29T04:10:35.648Z,73.24
2022-10-29T04:15:56.937Z,73.01
2022-10-29T04:32:39.488Z,72.74
2022-10-29T04:38:00.048Z,72.71
2022-10-29T04:43:20.757Z,72.96
2022-10-29T04:48:41.422Z,72.42
2022-10-29T04:54:01.986Z,72.13
2022-10-29T04:59:22.555Z,72.17
2022-10-29T05:04:43.225Z,72.39
2022-10-29T05:10:04.131Z,72.08
2022-10-29T05:15:25.252Z,71.94
2022-10-29T05:20:46.353Z,71.68
2022-10-29T05:26:06.828Z,71.83
2022-10-29T05:31:27.669Z,72.31
2022-10-29T05:36:48.332Z,72.19
2022-10-29T05:42:08.890Z,71.65
2022-10-29T05:47:29.402Z,71.78
2022-10-29T05:53:16.299Z,72.43
2022-10-29T05:58:36.976Z,71.97
2022-10-29T06:03:58.139Z,71.99
2022-10-29T06:09:19.026Z,72.21
2022-10-29T06:14:39.626Z,72.41
2022-10-29T06:20:00.325Z,72.32
2022-10-29T06:25:20.879Z,72.57
2022-10-29T06:30:45.735Z,72.65
2022-10-29T06:36:07.082Z,72.09
2022-10-29T06:41:28.794Z,72.61
2022-10-29T06:46:51.189Z,72.65
2022-10-29T06:52:11.707Z,72.08
2022-10-29T06:57:32.415Z,72.43
2022-10-29T07:02:53.297Z,72.40
2022-10-29T07:08:14.224Z,72.64
2022-10-29T07:13:35.797Z,72.77
2022-10-29T07:18:56.666Z,73.02
2022-10-29T07:24:20.052Z,72.74
2022-10-29T07:29:41.003Z,72.66
2022-10-29T07:35:01.662Z,73.09
2022-10-29T07:40:22.263Z,73.92
2022-10-29T07:45:45.273Z,73.76
2022-10-29T07:51:06.093Z,72.95
2022-10-29T07:56:27.807Z,73.30
2022-10-29T08:01:48.833Z,73.44
2022-10-29T08:07:09.913Z,73.73
2022-10-29T08:12:30.615Z,73.25
2022-10-29T08:17:51.604Z,73.03
2022-10-29T08:23:13.569Z,72.62
2022-10-29T08:28:35.802Z,72.82
2022-10-29T08:33:56.721Z,72.60
2022-10-29T08:39:17.261Z,72.20
2022-10-29T08:44:53.772Z,72.27
2022-10-29T08:50:29.857Z,72.06
2022-10-29T08:55:50.687Z,71.62
2022-10-29T09:01:12.511Z,71.33
2022-10-29T09:06:49.205Z,71.65
2022-10-29T09:12:33.027Z,71.51
2022-10-29T09:18:10.102Z,71.24
2022-10-29T09:24:00.335Z,71.26
2022-10-29T09:29:33.139Z,71.09
2022-10-29T09:35:00.505Z,71.06
2022-10-29T09:40:37.784Z,71.34
2022-10-29T09:46:10.474Z,71.12
2022-10-29T09:51:53.603Z,71.19
2022-10-29T09:57:24.110Z,71.14
2022-10-29T10:02:54.810Z,71.28
2022-10-29T10:08:15.759Z,71.09
2022-10-29T10:13:50.017Z,70.86
2022-10-29T10:19:25.689Z,70.57
2022-10-29T10:24:47.219Z,70.60
2022-10-29T10:30:16.018Z,70.46
2022-10-29T10:35:37.698Z,70.34
2022-10-29T10:41:05.091Z,70.06
2022-10-29T10:46:30.801Z,69.82
2022-10-29T10:51:54.383Z,69.92
2022-10-29T10:57:17.124Z,69.98
2022-10-29T11:02:54.983Z,69.61
2022-10-29T11:08:23.590Z,69.40
2022-10-29T11:13:44.441Z,69.31
2022-10-29T11:19:34.202Z,68.98
2022-10-29T11:24:59.616Z,68.91
2022-10-29T11:30:20.653Z,68.60
2022-10-29T11:36:01.440Z,68.52
2022-10-29T11:41:48.331Z,68.46
2022-10-29T11:47:30.165Z,68.19
2022-10-29T11:52:54.176Z,67.98
2022-10-29T11:58:34.319Z,68.10
2022-10-29T12:04:24.387Z,67.79
2022-10-29T12:10:06.804Z,67.45
2022-10-29T12:15:37.127Z,67.34
2022-10-29T12:21:08.260Z,67.29
2022-10-29T12:26:46.263Z,67.36
2022-10-29T12:32:33.508Z,67.05
2022-10-29T12:38:32.067Z,66.74
2022-10-29T12:44:04.126Z,66.90
2022-10-29T12:49:45.742Z,66.46
2022-10-29T12:55:10.494Z,66.55
2022-10-29T13:00:49.650Z,66.79
2022-10-29T13:06:44.337Z,66.64
2022-10-29T13:12:10.014Z,66.60
2022-10-29T13:17:40.208Z,66.67
2022-10-29T13:23:04.013Z,66.19
2022-10-29T13:28:28.021Z,66.50
2022-10-29T13:33:49.966Z,66.11
2022-10-29T13:39:19.580Z,66.23
2022-10-29T13:44:40.627Z,66.35
2022-10-29T13:50:01.498Z,66.78
2022-10-29T13:55:23.092Z,66.56
2022-10-29T14:00:46.343Z,66.30
2022-10-29T14:06:20.740Z,66.15
2022-10-29T14:11:52.584Z,66.32
2022-10-29T14:17:16.180Z,66.29
2022-10-29T14:22:41.097Z,66.36
2022-10-29T14:28:31.699Z,67.04
2022-10-29T14:33:57.702Z,67.30
2022-10-29T14:39:32.791Z,66.90
2022-10-29T14:45:00.867Z,67.18
2022-10-29T14:50:24.180Z,67.19
2022-10-29T14:55:50.106Z,67.29
2022-10-29T15:01:20.441Z,67.38
2022-10-29T15:06:41.292Z,67.38
2022-10-29T15:12:07.528Z,67.42
2022-10-29T15:17:31.838Z,67.44
2022-10-29T15:22:55.775Z,67.59
2022-10-29T15:28:24.594Z,67.45
2022-10-29T15:33:45.537Z,67.64
2022-10-29T15:39:20.243Z,67.85
2022-10-29T15:44:41.218Z,67.94
2022-10-29T15:50:02.541Z,67.61
2022-10-29T15:55:29.601Z,67.75
2022-10-29T16:00:51.679Z,67.85
2022-10-29T16:06:12.911Z,67.76
2022-10-29T16:11:35.091Z,67.90
2022-10-29T16:16:55.678Z,68.12
2022-10-29T16:22:30.111Z,68.28
2022-10-29T16:27:51.124Z,68.18
2022-10-29T16:33:12.324Z,68.41
2022-10-29T16:38:33.296Z,68.53
2022-10-29T16:43:54.115Z,68.37
2022-10-29T16:49:14.708Z,68.48
2022-10-29T16:54:35.253Z,68.79
2022-10-29T16:59:55.962Z,68.68
2022-10-29T17:05:17.091Z,68.96
2022-10-29T17:10:37.884Z,68.75
2022-10-29T17:15:58.540Z,69.27
2022-10-29T17:21:19.309Z,69.34
2022-10-29T17:26:40.108Z,69.21
2022-10-29T17:32:01.311Z,69.09
2022-10-29T17:37:22.126Z,69.58
2022-10-29T17:42:42.940Z,69.51
2022-10-29T17:48:03.817Z,69.25
2022-10-29T17:53:26.062Z,69.50
2022-10-29T17:58:47.252Z,69.39
2022-10-29T18:04:07.878Z,69.42
2022-10-29T18:09:28.643Z,69.31
2022-10-29T18:14:49.211Z,69.31
2022-10-29T18:20:10.515Z,69.21
2022-10-29T18:25:31.373Z,69.23
2022-10-29T18:30:52.040Z,69.31
2022-10-29T18:36:12.908Z,69.52
2022-10-29T18:41:34.574Z,69.50
2022-10-29T18:46:55.253Z,69.43
2022-10-29T18:52:16.166Z,69.25
2022-10-29T18:57:36.804Z,69.24
2022-10-29T19:02:57.741Z,69.38
2022-10-29T19:08:18.657Z,69.27
2022-10-29T19:13:40.135Z,69.20
2022-10-29T19:24:29.660Z,69.39
2022-10-29T19:29:50.709Z,69.33
2022-10-29T19:35:11.620Z,69.25
2022-10-29T19:40:32.142Z,69.05
2022-10-29T19:45:53.313Z,68.97
2022-10-29T19:51:13.930Z,69.15
2022-10-29T19:56:34.667Z,68.97
2022-10-29T20:01:55.394Z,69.48
2022-10-29T20:07:15.710Z,69.02
2022-10-29T20:12:36.300Z,69.10
2022-10-29T20:17:59.832Z,68.97
2022-10-29T20:23:21.231Z,68.82
2022-10-29T20:28:42.419Z,69.10
2022-10-29T20:34:03.414Z,69.49
2022-10-29T20:39:25.534Z,69.48
2022-10-29T20:44:47.858Z,69.35
2022-10-29T20:50:09.164Z,69.48
2022-10-29T20:55:29.682Z,69.67
2022-10-29T21:00:50.557Z,69.39
2022-10-29T21:06:17.008Z,69.43
2022-10-29T21:11:38.006Z,69.48
2022-10-29T21:16:58.592Z,69.61
2022-10-29T21:22:19.238Z,69.64
2022-10-29T21:27:40.296Z,69.41
2022-10-29T21:33:00.839Z,69.55
2022-10-29T21:38:22.673Z,69.41
2022-10-29T21:43:43.803Z,69.63
2022-10-29T21:49:04.600Z,70.51
2022-10-29T21:54:28.389Z,69.78
2022-10-29T21:59:49.422Z,69.79
2022-10-29T22:05:10.032Z,69.57
2022-10-29T22:10:30.654Z,69.65
2022-10-29T22:15:51.219Z,69.86
2022-10-29T22:21:20.436Z,69.67
2022-10-29T22:26:41.021Z,69.65
2022-10-29T22:32:01.592Z,70.18
2022-10-29T22:37:22.469Z,70.33
2022-10-29T22:42:43.309Z,70.12
2022-10-29T22:48:04.296Z,70.88
2022-10-29T22:53:25.146Z,70.57
2022-10-29T22:58:46.409Z,70.97
2022-10-29T23:04:07.057Z,70.47
2022-10-29T23:09:27.834Z,70.83
2022-10-29T23:14:48.533Z,70.76
2022-10-29T23:20:09.484Z,70.94
2022-10-29T23:25:30.494Z,71.02
2022-10-29T23:30:58.222Z,70.95
2022-10-29T23:36:21.774Z,70.74
2022-10-29T23:41:42.328Z,70.68
2022-10-29T23:47:03.192Z,70.84
2022-10-29T23:52:24.110Z,70.78
2022-10-29T23:57:44.663Z,71.38
